Buoy 46565

sailwx.info

Track history (hours):
 
Tides and Currents Weather Stations Pressure Air Temp Water Temp Dewpoint Dewpoint Depression Visibility Wind Speed Wind Dir Waves Ship Positions

Drifting buoy 46565

Last reported at 2018-May-28 08:00 UTC. Time now 2018-May-28 09:54 UTC.
Position N 55°27' W 154°08'.

Water temperature 7.1 ° C

Date/timePositionNaut miles runAvg speedWind from/ knotsBaromVisibWave heightAir tempDewpointWater temp
2018-May-28 08:00N 55°27' W 154°08'2 1.6 7.1
2018-May-28 07:00N 55°28' W 154°07'1 1.4 7.1
2018-May-28 06:00N 55°29' W 154°05'0 0.0 7.1
2018-May-28 05:00N 55°29' W 154°05'1 1.2 7.1
2018-May-28 04:00N 55°31' W 154°05'1 1.2 7.1
2018-May-28 03:00N 55°32' W 154°05'1 0.7 7.1
2018-May-28 02:00N 55°32' W 154°04'1 1.2 7.2
2018-May-28 01:00N 55°34' W 154°04'0 0.0 7.2
2018-May-28 00:00N 55°34' W 154°04'3 3.3 7.2
2018-May-27 23:00N 55°37' W 154°01'0 0.0 7.2
2018-May-27 21:00N 55°37' W 154°01'2 0.9 7.2
2018-May-27 19:00N 55°38' W 154°01'1 0.6 7.2
2018-May-27 17:00N 55°40' W 154°00'1 1.4 7.0
2018-May-27 16:00N 55°41' W 153°59'1 0.9 6.8
2018-May-27 15:00N 55°41' W 153°58'1 1.5 7.0
2018-May-27 14:00N 55°42' W 153°55'0 0.0 6.9
2018-May-27 13:00N 55°42' W 153°55'0 0.0 7.0
2018-May-27 12:00N 55°42' W 153°55'6 1.5 7.1
2018-May-27 08:00N 55°47' W 153°50'2 1.8 7.1
2018-May-27 07:00N 55°49' W 153°47'1 1.4 7.3
2018-May-27 06:00N 55°50' W 153°46'1 1.3 7.5
2018-May-27 05:00N 55°50' W 153°49'2 2.2 7.7
2018-May-27 04:00N 55°52' W 153°46'1 0.7 7.7
2018-May-27 03:00N 55°52' W 153°47'1 0.6 7.7
2018-May-27 02:00N 55°53' W 153°47'0 0.0 7.7
2018-May-27 01:00N 55°53' W 153°47'1 1.5 7.6
2018-May-27 00:00N 55°53' W 153°44'2 2.4 7.5
2018-May-26 23:00N 55°54' W 153°40'2 1.2 7.4
2018-May-26 21:00N 55°55' W 153°37'1 1.2 7.3
2018-May-26 20:00N 55°56' W 153°35'0 0.3 7.4
2018-May-26 19:00N 55°56' W 153°34'2 2.3 7.3
2018-May-26 18:00N 55°57' W 153°31'2 1.8 7.2
2018-May-26 17:00N 55°58' W 153°28'2 1.8 7.3
2018-May-26 16:00N 55°59' W 153°26'1 1.4 7.3
2018-May-26 15:00N 56°01' W 153°25'0 0.0 7.3
2018-May-26 14:00N 56°01' W 153°25'0 0.0 7.3
2018-May-26 13:00N 56°01' W 153°25'5 4.7 7.3
2018-May-26 12:00N 56°02' W 153°17'1 0.3 7.3
2018-May-26 08:00N 56°02' W 153°14'1 1.5 7.6
2018-May-26 07:00N 56°03' W 153°12'1 0.7 7.7
2018-May-26 06:00N 56°03' W 153°11'2 1.6 7.8
2018-May-26 05:00N 56°04' W 153°09'1 0.9 7.8
2018-May-26 04:00N 56°05' W 153°08'1 0.9 7.8
2018-May-26 03:00N 56°05' W 153°07'2 1.6 7.8
2018-May-26 02:00N 56°07' W 153°05'1 1.2 7.9
2018-May-26 01:00N 56°08' W 153°04'0 0.0 7.9
2018-May-26 00:00N 56°08' W 153°04'1 0.7 7.7
2018-May-25 23:00N 56°08' W 153°03'1 0.7 7.5
2018-May-25 22:00N 56°08' W 153°02'1 0.5 7.4
2018-May-25 20:00N 56°08' W 153°01'2 0.8 7.1
2018-May-25 18:00N 56°10' W 152°59'1 0.7 6.9
2018-May-25 17:00N 56°10' W 152°58'1 1.0 6.8
2018-May-25 16:00N 56°10' W 152°56'1 1.4 6.8
2018-May-25 15:00N 56°11' W 152°55'2 1.6 6.9
2018-May-25 14:00N 56°12' W 152°53'4 4.0 6.8
2018-May-25 13:00N 56°16' W 152°50'1 0.1 6.8
2018-May-25 08:00N 56°16' W 152°50'1 0.6 6.9
2018-May-25 07:00N 56°17' W 152°50'1 1.3 7.0
2018-May-25 06:00N 56°17' W 152°47'0 0.0 7.0
2018-May-25 05:00N 56°17' W 152°47'1 0.7 7.0
2018-May-25 04:00N 56°17' W 152°47'1 0.7 7.0
2018-May-25 03:00N 56°17' W 152°46'0 0.3 7.1
2018-May-25 02:00N 56°17' W 152°45'2 2.2 7.1
2018-May-25 01:00N 56°19' W 152°43'0 0.0 7.0
2018-May-25 00:00N 56°19' W 152°43'1 0.9 6.9
2018-May-24 23:00N 56°20' W 152°41'0 0.0 6.8
2018-May-24 22:00N 56°20' W 152°41'2 2.1 6.8
2018-May-24 21:00N 56°21' W 152°38'1 0.6 6.8
2018-May-24 20:00N 56°22' W 152°38'1 1.2 7.0
2018-May-24 19:00N 56°22' W 152°37'1 1.5 6.7
2018-May-24 18:00N 56°23' W 152°34'1 0.6 6.7
2018-May-24 17:00N 56°22' W 152°34'1 1.2 6.7
2018-May-24 16:00N 56°23' W 152°32'2 1.7 6.7
2018-May-24 15:00N 56°23' W 152°29'0 0.0 6.7
2018-May-24 14:00N 56°23' W 152°29'1 0.7 6.8
2018-May-24 13:00N 56°22' W 152°29'0 0.0 6.7
2018-May-24 12:00N 56°22' W 152°29'5 1.3 6.7
2018-May-24 08:00N 56°24' W 152°20'1 1.2 7.0
2018-May-24 07:00N 56°25' W 152°18'1 0.9 7.0
2018-May-24 06:00N 56°25' W 152°17'1 1.0 7.0
2018-May-24 05:00N 56°25' W 152°15'0 0.3 7.2
2018-May-24 04:00N 56°25' W 152°14'1 1.5 7.3
2018-May-24 03:00N 56°26' W 152°12'1 1.2 7.4
2018-May-24 02:00N 56°26' W 152°10'1 0.9 7.5
2018-May-24 01:00N 56°26' W 152°11'2 2.0 7.5
2018-May-24 00:00N 56°27' W 152°08'2 1.8 7.4
2018-May-23 23:00N 56°28' W 152°05'0 0.3 7.4
2018-May-23 22:00N 56°28' W 152°05'3 3.2 7.2
2018-May-23 21:00N 56°29' W 152°00'0 0.0 7.2
2018-May-23 20:00N 56°29' W 152°00'1 1.2 7.0
2018-May-23 19:00N 56°30' W 151°58'2 2.0 6.7
2018-May-23 18:00N 56°31' W 151°55'0 0.0 6.5
2018-May-23 17:00N 56°31' W 151°55'2 2.2 6.5
2018-May-23 16:00N 56°33' W 151°53'0 0.0 6.5
2018-May-23 15:00N 56°33' W 151°53'2 2.1 6.5
2018-May-23 14:00N 56°35' W 151°51'5 5.2 6.5
2018-May-23 13:00N 56°40' W 151°47'0 0.0 6.5
2018-May-23 12:00N 56°40' W 151°47'0 0.0 6.6
2018-May-23 08:00N 56°40' W 151°47'2 2.4 6.6
2018-May-23 07:00N 56°41' W 151°44'1 0.6 6.7
2018-May-23 06:00N 56°42' W 151°44'2 1.8 6.6
2018-May-23 05:00N 56°43' W 151°42'1 0.6 6.6
2018-May-23 04:00N 56°44' W 151°42'1 1.2 6.6
2018-May-23 03:00N 56°44' W 151°40'1 1.2 6.7
2018-May-23 02:00N 56°46' W 151°40'2 2.2 6.7
2018-May-23 01:00N 56°47' W 151°37'2 2.1 6.7
2018-May-23 00:00N 56°49' W 151°35'0 0.0 6.7
2018-May-22 23:00N 56°49' W 151°35'3 1.3 6.6
2018-May-22 21:00N 56°52' W 151°34'1 0.6 6.6
2018-May-22 20:00N 56°52' W 151°34'1 1.4 6.6
2018-May-22 19:00N 56°53' W 151°32'1 0.9 6.6
2018-May-22 18:00N 56°54' W 151°31'1 1.2 6.6
2018-May-22 17:00N 56°55' W 151°31'1 0.9 6.6
2018-May-22 16:00N 56°56' W 151°29'1 0.9 6.6
2018-May-22 15:00N 56°56' W 151°28'2 2.1 6.5
2018-May-22 14:00N 56°58' W 151°26'4 4.2 6.5
2018-May-22 13:00N 57°02' W 151°26'0 0.0 6.5
2018-May-22 12:00N 57°02' W 151°26'0 0.1 6.5
2018-May-22 08:00N 57°02' W 151°26'1 0.7 6.6
2018-May-22 07:00N 57°02' W 151°25'1 1.2 6.6
2018-May-22 06:00N 57°03' W 151°25'1 1.1 6.6
2018-May-22 05:00N 57°02' W 151°23'0 0.3 6.6
2018-May-22 04:00N 57°02' W 151°23'1 1.3 6.6
2018-May-22 03:00N 57°02' W 151°20'1 1.3 6.6
2018-May-22 02:00N 57°02' W 151°18'2 1.6 6.6
2018-May-22 01:00N 57°02' W 151°15'0 0.3 6.6
2018-May-22 00:00N 57°02' W 151°14'2 2.0 6.6
2018-May-21 23:00N 57°02' W 151°11'1 0.9 6.6
2018-May-21 22:00N 57°03' W 151°10'1 1.1 6.5
2018-May-21 21:00N 57°04' W 151°08'0 0.0 6.5
2018-May-21 20:00N 57°04' W 151°08'1 0.7 6.5
2018-May-21 19:00N 57°04' W 151°07'1 1.1 6.5
2018-May-21 18:00N 57°05' W 151°05'1 0.6 6.5
2018-May-21 17:00N 57°04' W 151°05'1 0.9 6.4
2018-May-21 16:00N 57°05' W 151°04'1 1.1 6.4
2018-May-21 15:00N 57°05' W 151°02'6 5.6 6.4
2018-May-21 14:00N 57°09' W 150°55'0 0.0 6.4
2018-May-21 13:00N 57°09' W 150°55'0 0.0 6.4
2018-May-21 12:00N 57°09' W 150°55'0 0.0 6.5
2018-May-21 11:00N 57°09' W 150°55'0 0.0 6.5
2018-May-21 08:00N 57°09' W 150°55'0 0.0 6.5
2018-May-21 07:00N 57°09' W 150°55'1 0.9 6.5
2018-May-21 06:00N 57°10' W 150°53'1 0.9 6.5
2018-May-21 05:00N 57°09' W 150°52'0 0.3 6.5
2018-May-21 04:00N 57°09' W 150°52'1 1.3 6.5
2018-May-21 03:00N 57°09' W 150°49'2 1.7 6.4
2018-May-21 02:00N 57°08' W 150°46'1 0.7 6.4
2018-May-21 01:00N 57°08' W 150°45'1 1.1 6.4
2018-May-21 00:00N 57°09' W 150°43'1 0.9 6.4
2018-May-20 23:00N 57°08' W 150°42'3 2.9 6.4
2018-May-20 22:00N 57°10' W 150°37'0 0.0 6.4
2018-May-20 21:00N 57°10' W 150°37'1 1.1 6.4
2018-May-20 20:00N 57°10' W 150°35'0 0.0 6.5
2018-May-20 19:00N 57°10' W 150°35'0 0.3 6.4
2018-May-20 18:00N 57°10' W 150°35'2 2.0 6.4
2018-May-20 17:00N 57°11' W 150°31'1 0.7 6.4
2018-May-20 16:00N 57°10' W 150°31'2 1.7 6.3
2018-May-20 15:00N 57°11' W 150°28'2 2.0 6.3
2018-May-20 14:00N 57°11' W 150°24'0 0.0 6.4
2018-May-20 13:00N 57°11' W 150°24'0 0.0 6.4
2018-May-20 12:00N 57°11' W 150°24'3 0.7 6.4
2018-May-20 08:00N 57°13' W 150°20'1 0.6 6.4
2018-May-20 07:00N 57°13' W 150°19'1 0.6 6.4
2018-May-20 06:00N 57°14' W 150°19'2 1.5 6.4
2018-May-20 05:00N 57°13' W 150°17'2 2.4 6.4
2018-May-20 04:00N 57°12' W 150°13'0 0.0 6.4
2018-May-20 03:00N 57°12' W 150°13'2 2.3 6.4
2018-May-20 02:00N 57°12' W 150°08'1 1.4 6.4
2018-May-20 01:00N 57°13' W 150°06'2 1.8 6.4
2018-May-20 00:00N 57°14' W 150°04'0 0.0 6.3
2018-May-19 23:00N 57°14' W 150°04'1 0.6 6.3
2018-May-19 22:00N 57°14' W 150°04'1 0.3 6.3
2018-May-19 20:00N 57°14' W 150°04'1 1.2 6.2
2018-May-19 19:00N 57°13' W 150°04'0 0.0 6.2
2018-May-19 18:00N 57°13' W 150°04'0 0.3 6.2
2018-May-19 17:00N 57°13' W 150°04'1 1.4 6.2
2018-May-19 16:00N 57°11' W 150°02'0 0.3 6.2
2018-May-19 15:00N 57°11' W 150°03'2 2.4 6.2
2018-May-19 14:00N 57°12' W 149°59'1 0.6 6.2
2018-May-19 13:00N 57°11' W 149°59'0 0.3 6.2
2018-May-19 12:00N 57°11' W 149°59'1 0.2 6.2
2018-May-19 08:00N 57°12' W 149°59'0 0.3 6.2
2018-May-19 07:00N 57°12' W 149°58'1 0.7 6.2
2018-May-19 06:00N 57°11' W 149°58'1 0.9 6.2
2018-May-19 05:00N 57°11' W 149°56'1 1.4 6.2
2018-May-19 04:00N 57°10' W 149°54'1 0.7 6.2
2018-May-19 03:00N 57°10' W 149°53'1 1.1 6.2
2018-May-19 02:00N 57°10' W 149°51'1 1.0 6.2
2018-May-19 01:00N 57°10' W 149°49'2 1.7 6.2
2018-May-19 00:00N 57°10' W 149°46'0 0.0 6.2
2018-May-18 23:00N 57°10' W 149°46'0 0.0 6.2
2018-May-18 22:00N 57°10' W 149°46'1 0.9 6.2
2018-May-18 21:00N 57°11' W 149°45'1 0.3 6.2
2018-May-18 19:00N 57°10' W 149°44'1 0.3 6.2
2018-May-18 17:00N 57°10' W 149°45'1 1.3 6.2
2018-May-18 16:00N 57°10' W 149°43'1 0.9 6.2
2018-May-18 15:00N 57°09' W 149°41'1 0.9 6.2
2018-May-18 14:00N 57°08' W 149°40'0 0.0 6.2
2018-May-18 13:00N 57°08' W 149°40'0 0.0 6.2
2018-May-18 12:00N 57°08' W 149°40'   6.2
Track history (hours):
 
Tides and Currents Weather Stations Pressure Air Temp Water Temp Dewpoint Dewpoint Depression Visibility Wind Speed Wind Dir Waves Ship Positions

Drifting buoy 46565

Last reported at 2018-May-28 08:00 UTC. Time now 2018-May-28 09:54 UTC.
Position N 55°27' W 154°08'.

Water temperature 7.1 ° C

Date/timePositionNaut miles runAvg speedWind from/ knotsBaromVisibWave heightAir tempDewpointWater temp
2018-May-28 08:00N 55°27' W 154°08'2 1.6 7.1
2018-May-28 07:00N 55°28' W 154°07'1 1.4 7.1
2018-May-28 06:00N 55°29' W 154°05'0 0.0 7.1
2018-May-28 05:00N 55°29' W 154°05'1 1.2 7.1
2018-May-28 04:00N 55°31' W 154°05'1 1.2 7.1
2018-May-28 03:00N 55°32' W 154°05'1 0.7 7.1
2018-May-28 02:00N 55°32' W 154°04'1 1.2 7.2
2018-May-28 01:00N 55°34' W 154°04'0 0.0 7.2
2018-May-28 00:00N 55°34' W 154°04'3 3.3 7.2
2018-May-27 23:00N 55°37' W 154°01'0 0.0 7.2
2018-May-27 21:00N 55°37' W 154°01'2 0.9 7.2
2018-May-27 19:00N 55°38' W 154°01'1 0.6 7.2
2018-May-27 17:00N 55°40' W 154°00'1 1.4 7.0
2018-May-27 16:00N 55°41' W 153°59'1 0.9 6.8
2018-May-27 15:00N 55°41' W 153°58'1 1.5 7.0
2018-May-27 14:00N 55°42' W 153°55'0 0.0 6.9
2018-May-27 13:00N 55°42' W 153°55'0 0.0 7.0
2018-May-27 12:00N 55°42' W 153°55'6 1.5 7.1
2018-May-27 08:00N 55°47' W 153°50'2 1.8 7.1
2018-May-27 07:00N 55°49' W 153°47'1 1.4 7.3
2018-May-27 06:00N 55°50' W 153°46'1 1.3 7.5
2018-May-27 05:00N 55°50' W 153°49'2 2.2 7.7
2018-May-27 04:00N 55°52' W 153°46'1 0.7 7.7
2018-May-27 03:00N 55°52' W 153°47'1 0.6 7.7
2018-May-27 02:00N 55°53' W 153°47'0 0.0 7.7
2018-May-27 01:00N 55°53' W 153°47'1 1.5 7.6
2018-May-27 00:00N 55°53' W 153°44'2 2.4 7.5
2018-May-26 23:00N 55°54' W 153°40'2 1.2 7.4
2018-May-26 21:00N 55°55' W 153°37'1 1.2 7.3
2018-May-26 20:00N 55°56' W 153°35'0 0.3 7.4
2018-May-26 19:00N 55°56' W 153°34'2 2.3 7.3
2018-May-26 18:00N 55°57' W 153°31'2 1.8 7.2
2018-May-26 17:00N 55°58' W 153°28'2 1.8 7.3
2018-May-26 16:00N 55°59' W 153°26'1 1.4 7.3
2018-May-26 15:00N 56°01' W 153°25'0 0.0 7.3
2018-May-26 14:00N 56°01' W 153°25'0 0.0 7.3
2018-May-26 13:00N 56°01' W 153°25'5 4.7 7.3
2018-May-26 12:00N 56°02' W 153°17'1 0.3 7.3
2018-May-26 08:00N 56°02' W 153°14'1 1.5 7.6
2018-May-26 07:00N 56°03' W 153°12'1 0.7 7.7
2018-May-26 06:00N 56°03' W 153°11'2 1.6 7.8
2018-May-26 05:00N 56°04' W 153°09'1 0.9 7.8
2018-May-26 04:00N 56°05' W 153°08'1 0.9 7.8
2018-May-26 03:00N 56°05' W 153°07'2 1.6 7.8
2018-May-26 02:00N 56°07' W 153°05'1 1.2 7.9
2018-May-26 01:00N 56°08' W 153°04'0 0.0 7.9
2018-May-26 00:00N 56°08' W 153°04'1 0.7 7.7
2018-May-25 23:00N 56°08' W 153°03'1 0.7 7.5
2018-May-25 22:00N 56°08' W 153°02'1 0.5 7.4
2018-May-25 20:00N 56°08' W 153°01'2 0.8 7.1
2018-May-25 18:00N 56°10' W 152°59'1 0.7 6.9
2018-May-25 17:00N 56°10' W 152°58'1 1.0 6.8
2018-May-25 16:00N 56°10' W 152°56'1 1.4 6.8
2018-May-25 15:00N 56°11' W 152°55'2 1.6 6.9
2018-May-25 14:00N 56°12' W 152°53'4 4.0 6.8
2018-May-25 13:00N 56°16' W 152°50'1 0.1 6.8
2018-May-25 08:00N 56°16' W 152°50'1 0.6 6.9
2018-May-25 07:00N 56°17' W 152°50'1 1.3 7.0
2018-May-25 06:00N 56°17' W 152°47'0 0.0 7.0
2018-May-25 05:00N 56°17' W 152°47'1 0.7 7.0
2018-May-25 04:00N 56°17' W 152°47'1 0.7 7.0
2018-May-25 03:00N 56°17' W 152°46'0 0.3 7.1
2018-May-25 02:00N 56°17' W 152°45'2 2.2 7.1
2018-May-25 01:00N 56°19' W 152°43'0 0.0 7.0
2018-May-25 00:00N 56°19' W 152°43'1 0.9 6.9
2018-May-24 23:00N 56°20' W 152°41'0 0.0 6.8
2018-May-24 22:00N 56°20' W 152°41'2 2.1 6.8
2018-May-24 21:00N 56°21' W 152°38'1 0.6 6.8
2018-May-24 20:00N 56°22' W 152°38'1 1.2 7.0
2018-May-24 19:00N 56°22' W 152°37'1 1.5 6.7
2018-May-24 18:00N 56°23' W 152°34'1 0.6 6.7
2018-May-24 17:00N 56°22' W 152°34'1 1.2 6.7
2018-May-24 16:00N 56°23' W 152°32'2 1.7 6.7
2018-May-24 15:00N 56°23' W 152°29'0 0.0 6.7
2018-May-24 14:00N 56°23' W 152°29'1 0.7 6.8
2018-May-24 13:00N 56°22' W 152°29'0 0.0 6.7
2018-May-24 12:00N 56°22' W 152°29'5 1.3 6.7
2018-May-24 08:00N 56°24' W 152°20'1 1.2 7.0
2018-May-24 07:00N 56°25' W 152°18'1 0.9 7.0
2018-May-24 06:00N 56°25' W 152°17'1 1.0 7.0
2018-May-24 05:00N 56°25' W 152°15'0 0.3 7.2
2018-May-24 04:00N 56°25' W 152°14'1 1.5 7.3
2018-May-24 03:00N 56°26' W 152°12'1 1.2 7.4
2018-May-24 02:00N 56°26' W 152°10'1 0.9 7.5
2018-May-24 01:00N 56°26' W 152°11'2 2.0 7.5
2018-May-24 00:00N 56°27' W 152°08'2 1.8 7.4
2018-May-23 23:00N 56°28' W 152°05'0 0.3 7.4
2018-May-23 22:00N 56°28' W 152°05'3 3.2 7.2
2018-May-23 21:00N 56°29' W 152°00'0 0.0 7.2
2018-May-23 20:00N 56°29' W 152°00'1 1.2 7.0
2018-May-23 19:00N 56°30' W 151°58'2 2.0 6.7
2018-May-23 18:00N 56°31' W 151°55'0 0.0 6.5
2018-May-23 17:00N 56°31' W 151°55'2 2.2 6.5
2018-May-23 16:00N 56°33' W 151°53'0 0.0 6.5
2018-May-23 15:00N 56°33' W 151°53'2 2.1 6.5
2018-May-23 14:00N 56°35' W 151°51'5 5.2 6.5
2018-May-23 13:00N 56°40' W 151°47'0 0.0 6.5
2018-May-23 12:00N 56°40' W 151°47'0 0.0 6.6
2018-May-23 08:00N 56°40' W 151°47'2 2.4 6.6
2018-May-23 07:00N 56°41' W 151°44'1 0.6 6.7
2018-May-23 06:00N 56°42' W 151°44'2 1.8 6.6
2018-May-23 05:00N 56°43' W 151°42'1 0.6 6.6
2018-May-23 04:00N 56°44' W 151°42'1 1.2 6.6
2018-May-23 03:00N 56°44' W 151°40'1 1.2 6.7
2018-May-23 02:00N 56°46' W 151°40'2 2.2 6.7
2018-May-23 01:00N 56°47' W 151°37'2 2.1 6.7
2018-May-23 00:00N 56°49' W 151°35'0 0.0 6.7
2018-May-22 23:00N 56°49' W 151°35'3 1.3 6.6
2018-May-22 21:00N 56°52' W 151°34'1 0.6 6.6
2018-May-22 20:00N 56°52' W 151°34'1 1.4 6.6
2018-May-22 19:00N 56°53' W 151°32'1 0.9 6.6
2018-May-22 18:00N 56°54' W 151°31'1 1.2 6.6
2018-May-22 17:00N 56°55' W 151°31'1 0.9 6.6
2018-May-22 16:00N 56°56' W 151°29'1 0.9 6.6
2018-May-22 15:00N 56°56' W 151°28'2 2.1 6.5
2018-May-22 14:00N 56°58' W 151°26'4 4.2 6.5
2018-May-22 13:00N 57°02' W 151°26'0 0.0 6.5
2018-May-22 12:00N 57°02' W 151°26'0 0.1 6.5
2018-May-22 08:00N 57°02' W 151°26'1 0.7 6.6
2018-May-22 07:00N 57°02' W 151°25'1 1.2 6.6
2018-May-22 06:00N 57°03' W 151°25'1 1.1 6.6
2018-May-22 05:00N 57°02' W 151°23'0 0.3 6.6
2018-May-22 04:00N 57°02' W 151°23'1 1.3 6.6
2018-May-22 03:00N 57°02' W 151°20'1 1.3 6.6
2018-May-22 02:00N 57°02' W 151°18'2 1.6 6.6
2018-May-22 01:00N 57°02' W 151°15'0 0.3 6.6
2018-May-22 00:00N 57°02' W 151°14'2 2.0 6.6
2018-May-21 23:00N 57°02' W 151°11'1 0.9 6.6
2018-May-21 22:00N 57°03' W 151°10'1 1.1 6.5
2018-May-21 21:00N 57°04' W 151°08'0 0.0 6.5
2018-May-21 20:00N 57°04' W 151°08'1 0.7 6.5
2018-May-21 19:00N 57°04' W 151°07'1 1.1 6.5
2018-May-21 18:00N 57°05' W 151°05'1 0.6 6.5
2018-May-21 17:00N 57°04' W 151°05'1 0.9 6.4
2018-May-21 16:00N 57°05' W 151°04'1 1.1 6.4
2018-May-21 15:00N 57°05' W 151°02'6 5.6 6.4
2018-May-21 14:00N 57°09' W 150°55'0 0.0 6.4
2018-May-21 13:00N 57°09' W 150°55'0 0.0 6.4
2018-May-21 12:00N 57°09' W 150°55'0 0.0 6.5
2018-May-21 11:00N 57°09' W 150°55'0 0.0 6.5
2018-May-21 08:00N 57°09' W 150°55'0 0.0 6.5
2018-May-21 07:00N 57°09' W 150°55'1 0.9 6.5
2018-May-21 06:00N 57°10' W 150°53'1 0.9 6.5
2018-May-21 05:00N 57°09' W 150°52'0 0.3 6.5
2018-May-21 04:00N 57°09' W 150°52'1 1.3 6.5
2018-May-21 03:00N 57°09' W 150°49'2 1.7 6.4
2018-May-21 02:00N 57°08' W 150°46'1 0.7 6.4
2018-May-21 01:00N 57°08' W 150°45'1 1.1 6.4
2018-May-21 00:00N 57°09' W 150°43'1 0.9 6.4
2018-May-20 23:00N 57°08' W 150°42'3 2.9 6.4
2018-May-20 22:00N 57°10' W 150°37'0 0.0 6.4
2018-May-20 21:00N 57°10' W 150°37'1 1.1 6.4
2018-May-20 20:00N 57°10' W 150°35'0 0.0 6.5
2018-May-20 19:00N 57°10' W 150°35'0 0.3 6.4
2018-May-20 18:00N 57°10' W 150°35'2 2.0 6.4
2018-May-20 17:00N 57°11' W 150°31'1 0.7 6.4
2018-May-20 16:00N 57°10' W 150°31'2 1.7 6.3
2018-May-20 15:00N 57°11' W 150°28'2 2.0 6.3
2018-May-20 14:00N 57°11' W 150°24'0 0.0 6.4
2018-May-20 13:00N 57°11' W 150°24'0 0.0 6.4
2018-May-20 12:00N 57°11' W 150°24'3 0.7 6.4
2018-May-20 08:00N 57°13' W 150°20'1 0.6 6.4
2018-May-20 07:00N 57°13' W 150°19'1 0.6 6.4
2018-May-20 06:00N 57°14' W 150°19'2 1.5 6.4
2018-May-20 05:00N 57°13' W 150°17'2 2.4 6.4
2018-May-20 04:00N 57°12' W 150°13'0 0.0 6.4
2018-May-20 03:00N 57°12' W 150°13'2 2.3 6.4
2018-May-20 02:00N 57°12' W 150°08'1 1.4 6.4
2018-May-20 01:00N 57°13' W 150°06'2 1.8 6.4
2018-May-20 00:00N 57°14' W 150°04'0 0.0 6.3
2018-May-19 23:00N 57°14' W 150°04'1 0.6 6.3
2018-May-19 22:00N 57°14' W 150°04'1 0.3 6.3
2018-May-19 20:00N 57°14' W 150°04'1 1.2 6.2
2018-May-19 19:00N 57°13' W 150°04'0 0.0 6.2
2018-May-19 18:00N 57°13' W 150°04'0 0.3 6.2
2018-May-19 17:00N 57°13' W 150°04'1 1.4 6.2
2018-May-19 16:00N 57°11' W 150°02'0 0.3 6.2
2018-May-19 15:00N 57°11' W 150°03'2 2.4 6.2
2018-May-19 14:00N 57°12' W 149°59'1 0.6 6.2
2018-May-19 13:00N 57°11' W 149°59'0 0.3 6.2
2018-May-19 12:00N 57°11' W 149°59'1 0.2 6.2
2018-May-19 08:00N 57°12' W 149°59'0 0.3 6.2
2018-May-19 07:00N 57°12' W 149°58'1 0.7 6.2
2018-May-19 06:00N 57°11' W 149°58'1 0.9 6.2
2018-May-19 05:00N 57°11' W 149°56'1 1.4 6.2
2018-May-19 04:00N 57°10' W 149°54'1 0.7 6.2
2018-May-19 03:00N 57°10' W 149°53'1 1.1 6.2
2018-May-19 02:00N 57°10' W 149°51'1 1.0 6.2
2018-May-19 01:00N 57°10' W 149°49'2 1.7 6.2
2018-May-19 00:00N 57°10' W 149°46'0 0.0 6.2
2018-May-18 23:00N 57°10' W 149°46'0 0.0 6.2
2018-May-18 22:00N 57°10' W 149°46'1 0.9 6.2
2018-May-18 21:00N 57°11' W 149°45'1 0.3 6.2
2018-May-18 19:00N 57°10' W 149°44'1 0.3 6.2
2018-May-18 17:00N 57°10' W 149°45'1 1.3 6.2
2018-May-18 16:00N 57°10' W 149°43'1 0.9 6.2
2018-May-18 15:00N 57°09' W 149°41'1 0.9 6.2
2018-May-18 14:00N 57°08' W 149°40'0 0.0 6.2
2018-May-18 13:00N 57°08' W 149°40'0 0.0 6.2
2018-May-18 12:00N 57°08' W 149°40'   6.2

Dump ship's entire track history